createdAt,value
2018-08-25T00:00:19.833Z,30.8
2018-08-25T00:01:21.450Z,31.3
2018-08-25T00:02:22.914Z,30.8
2018-08-25T00:03:24.346Z,30.8
2018-08-25T00:04:25.994Z,30.8
2018-08-25T00:05:27.297Z,30.8
2018-08-25T00:06:28.778Z,30.8
2018-08-25T00:07:30.220Z,30.3
2018-08-25T00:08:31.642Z,30.3
2018-08-25T00:09:33.108Z,31.3
2018-08-25T00:10:34.561Z,31.3
2018-08-25T00:11:36.016Z,30.3
2018-08-25T00:12:37.617Z,30.3
2018-08-25T00:13:39.253Z,30.3
2018-08-25T00:14:40.870Z,30.3
2018-08-25T00:15:42.165Z,30.3
2018-08-25T00:16:43.766Z,30.8
2018-08-25T00:17:45.210Z,30.3
2018-08-25T00:18:46.798Z,29.8
2018-08-25T00:19:48.095Z,29.8
2018-08-25T00:20:49.531Z,30.8
2018-08-25T00:21:50.977Z,30.8
2018-08-25T00:22:52.589Z,30.8
2018-08-25T00:23:53.860Z,29.3
2018-08-25T00:24:55.467Z,30.3
2018-08-25T00:25:57.068Z,30.3
2018-08-25T00:26:58.518Z,29.8
2018-08-25T00:28:00.137Z,30.8
2018-08-25T00:29:01.747Z,30.3
2018-08-25T00:30:03.204Z,30.3
2018-08-25T00:31:04.845Z,30.3
2018-08-25T00:32:06.466Z,30.3
2018-08-25T00:33:07.939Z,30.3
2018-08-25T00:34:09.386Z,29.8
2018-08-25T00:35:10.821Z,29.8
2018-08-25T00:36:12.245Z,30.3
2018-08-25T00:37:13.685Z,29.8
2018-08-25T00:38:15.285Z,30.8
2018-08-25T00:39:16.742Z,29.8
2018-08-25T00:40:18.344Z,30.8
2018-08-25T00:41:19.956Z,30.3
2018-08-25T00:42:21.570Z,30.8
2018-08-25T00:43:22.871Z,29.8
2018-08-25T00:44:24.311Z,30.3
2018-08-25T00:45:25.898Z,30.3
2018-08-25T00:46:27.025Z,30.3
2018-08-25T00:47:28.640Z,30.3
2018-08-25T00:48:30.071Z,30.8
2018-08-25T00:49:31.665Z,30.3
2018-08-25T00:50:33.111Z,30.8
2018-08-25T00:51:34.552Z,30.8
2018-08-25T00:52:36.003Z,29.8
2018-08-25T00:53:37.619Z,30.8
2018-08-25T00:54:39.218Z,30.8
2018-08-25T00:55:40.837Z,30.3
2018-08-25T00:56:42.132Z,29.8
2018-08-25T00:57:43.567Z,29.8
2018-08-25T00:58:45.196Z,30.3
2018-08-25T00:59:46.838Z,30.8
2018-08-25T01:00:48.310Z,29.8
2018-08-25T01:01:49.757Z,29.8
2018-08-25T01:02:51.198Z,30.3
2018-08-25T01:03:52.639Z,30.3
2018-08-25T01:04:54.261Z,30.3
2018-08-25T01:05:55.359Z,30.3
2018-08-25T01:06:56.828Z,29.8
2018-08-25T01:07:58.421Z,29.8
2018-08-25T01:09:00.017Z,30.3
2018-08-25T01:10:01.455Z,30.3
2018-08-25T01:11:03.075Z,29.8
2018-08-25T01:12:04.667Z,29.8
2018-08-25T01:13:06.264Z,30.8
2018-08-25T01:14:07.893Z,31.3
2018-08-25T01:15:09.506Z,30.8
2018-08-25T01:16:10.971Z,31.3
2018-08-25T01:17:12.614Z,30.8
2018-08-25T01:18:14.219Z,31.3
2018-08-25T01:19:15.516Z,30.3
2018-08-25T01:20:17.129Z,30.8
2018-08-25T01:21:18.573Z,30.8
2018-08-25T01:22:20.209Z,30.8
2018-08-25T01:23:21.652Z,31.3
2018-08-25T01:24:23.283Z,30.8
2018-08-25T01:25:24.721Z,30.8
2018-08-25T01:26:26.160Z,31.8
2018-08-25T01:27:27.607Z,31.8
2018-08-25T01:28:29.101Z,30.8
2018-08-25T01:29:30.697Z,30.8
2018-08-25T01:30:32.133Z,31.3
2018-08-25T01:31:33.607Z,31.3
2018-08-25T01:32:35.087Z,31.3
2018-08-25T01:33:36.696Z,31.8
2018-08-25T01:34:38.135Z,31.8
2018-08-25T01:35:39.750Z,31.8
2018-08-25T01:36:41.350Z,32.3
2018-08-25T01:37:42.960Z,32.3
2018-08-25T01:38:44.569Z,31.8
2018-08-25T01:39:46.177Z,32.3
2018-08-25T01:40:47.784Z,32.3
2018-08-25T01:41:49.215Z,32.7
2018-08-25T01:42:50.845Z,31.8
2018-08-25T01:43:52.290Z,32.7
2018-08-25T01:44:53.740Z,32.7
2018-08-25T01:45:55.355Z,33.2
2018-08-25T01:46:56.959Z,33.2
2018-08-25T01:47:58.248Z,32.7
2018-08-25T01:48:59.864Z,33.7
2018-08-25T01:50:01.476Z,33.2
2018-08-25T01:51:03.092Z,33.7
2018-08-25T01:52:04.532Z,33.7
2018-08-25T01:53:05.986Z,33.7
2018-08-25T01:54:07.615Z,33.2
2018-08-25T01:55:09.047Z,33.7
2018-08-25T01:56:10.656Z,33.7
2018-08-25T01:57:12.278Z,32.7
2018-08-25T01:58:13.725Z,33.2
2018-08-25T01:59:15.349Z,33.7
2018-08-25T02:00:16.773Z,34.2
2018-08-25T02:01:18.410Z,33.7
2018-08-25T02:02:20.056Z,33.7
2018-08-25T02:03:21.688Z,34.2
2018-08-25T02:04:23.296Z,34.2
2018-08-25T02:05:24.724Z,34.7
2018-08-25T02:06:26.339Z,33.7
2018-08-25T02:07:27.615Z,34.7
2018-08-25T02:08:29.199Z,34.7
2018-08-25T02:09:30.645Z,34.2
2018-08-25T02:10:32.250Z,33.7
2018-08-25T02:11:33.345Z,34.2
2018-08-25T02:12:34.954Z,34.2
2018-08-25T02:13:36.564Z,34.2
2018-08-25T02:14:38.224Z,34.7
2018-08-25T02:15:39.838Z,34.7
2018-08-25T02:16:41.121Z,33.7
2018-08-25T02:17:42.732Z,34.2
2018-08-25T02:18:44.210Z,33.7
2018-08-25T02:19:45.805Z,33.7
2018-08-25T02:20:47.238Z,34.7
2018-08-25T02:21:48.715Z,34.7
2018-08-25T02:22:50.352Z,34.7
2018-08-25T02:23:51.966Z,34.2
2018-08-25T02:24:53.575Z,34.2
2018-08-25T02:25:55.196Z,34.2
2018-08-25T02:26:56.623Z,33.7
2018-08-25T02:27:58.083Z,33.7
2018-08-25T02:28:59.687Z,34.2
2018-08-25T02:30:01.307Z,33.7
2018-08-25T02:31:02.936Z,34.7
2018-08-25T02:32:04.550Z,33.7
2018-08-25T02:33:06.153Z,33.7
2018-08-25T02:34:07.791Z,34.2
2018-08-25T02:35:09.409Z,33.7
2018-08-25T02:36:10.869Z,34.2
2018-08-25T02:37:12.321Z,33.7
2018-08-25T02:38:13.922Z,33.7
2018-08-25T02:39:15.211Z,33.7
2018-08-25T02:40:16.857Z,34.7
2018-08-25T02:41:18.505Z,33.7
2018-08-25T02:42:20.130Z,34.2
2018-08-25T02:43:21.596Z,33.2
2018-08-25T02:44:22.873Z,33.7
2018-08-25T02:45:24.488Z,33.7
2018-08-25T02:46:25.932Z,33.7
2018-08-25T02:47:27.392Z,34.2
2018-08-25T02:48:29.059Z,33.7
2018-08-25T02:49:30.494Z,33.2
2018-08-25T02:50:31.935Z,33.7
2018-08-25T02:51:33.536Z,33.7
2018-08-25T02:52:35.152Z,33.2
2018-08-25T02:53:36.745Z,33.2
2018-08-25T02:54:38.354Z,33.2
2018-08-25T02:55:39.970Z,33.7
2018-08-25T02:56:41.594Z,33.2
2018-08-25T02:57:43.222Z,32.7
2018-08-25T02:58:44.830Z,33.2
2018-08-25T02:59:46.457Z,33.2
2018-08-25T03:00:48.075Z,33.7
2018-08-25T03:01:49.342Z,32.7
2018-08-25T03:02:50.787Z,33.7
2018-08-25T03:03:52.227Z,33.7
2018-08-25T03:04:53.848Z,33.2
2018-08-25T03:05:55.275Z,32.7
2018-08-25T03:06:56.926Z,33.7
2018-08-25T03:07:58.544Z,32.7
2018-08-25T03:09:00.159Z,33.2
2018-08-25T03:10:01.621Z,33.2
2018-08-25T03:11:03.061Z,33.2
2018-08-25T03:12:04.518Z,33.2
2018-08-25T03:13:05.950Z,33.2
2018-08-25T03:14:07.423Z,33.2
2018-08-25T03:15:09.031Z,32.7
2018-08-25T03:16:10.657Z,33.2
2018-08-25T03:17:12.277Z,33.7
2018-08-25T03:18:13.911Z,32.7
2018-08-25T03:19:15.505Z,33.2
2018-08-25T03:20:17.104Z,33.7
2018-08-25T03:21:18.720Z,34.2
2018-08-25T03:22:20.185Z,33.2
2018-08-25T03:23:21.806Z,32.7
2018-08-25T03:24:23.434Z,32.7
2018-08-25T03:25:25.040Z,32.7
2018-08-25T03:26:26.648Z,32.3
2018-08-25T03:27:28.246Z,32.7
2018-08-25T03:28:29.865Z,32.3
2018-08-25T03:29:31.311Z,33.2
2018-08-25T03:30:32.954Z,32.7
2018-08-25T03:31:34.593Z,32.7
2018-08-25T03:32:36.044Z,33.2
2018-08-25T03:33:37.498Z,32.7
2018-08-25T03:34:38.956Z,32.7
2018-08-25T03:35:40.576Z,32.7
2018-08-25T03:36:42.165Z,32.7
2018-08-25T03:37:43.609Z,33.2
2018-08-25T03:38:45.076Z,32.3
2018-08-25T03:39:46.382Z,32.7
2018-08-25T03:40:48.007Z,32.7
2018-08-25T03:41:49.472Z,32.7
2018-08-25T03:42:50.939Z,33.2
2018-08-25T03:43:52.225Z,33.7
2018-08-25T03:44:53.676Z,33.2
2018-08-25T03:45:55.281Z,33.2
2018-08-25T03:46:56.891Z,33.2
2018-08-25T03:47:58.335Z,32.7
2018-08-25T03:48:59.923Z,33.7
2018-08-25T03:50:01.559Z,33.2
2018-08-25T03:51:03.235Z,33.2
2018-08-25T03:52:04.696Z,33.7
2018-08-25T03:53:06.330Z,33.7
2018-08-25T03:54:07.788Z,34.2
2018-08-25T03:55:09.388Z,33.2
2018-08-25T03:56:11.029Z,34.2
2018-08-25T03:57:12.305Z,34.2
2018-08-25T03:58:13.796Z,34.2
2018-08-25T03:59:15.395Z,34.2
2018-08-25T04:00:16.676Z,33.2
2018-08-25T04:01:18.151Z,34.2
2018-08-25T04:02:19.748Z,34.2
2018-08-25T04:03:21.364Z,34.2
2018-08-25T04:04:22.801Z,34.2
2018-08-25T04:05:24.407Z,34.2
2018-08-25T04:06:26.013Z,33.7
2018-08-25T04:07:27.638Z,34.7
2018-08-25T04:08:29.101Z,35.2
2018-08-25T04:09:30.574Z,34.2
2018-08-25T04:10:32.187Z,34.7
2018-08-25T04:11:33.816Z,35.2
2018-08-25T04:12:35.280Z,34.2
2018-08-25T04:13:36.886Z,34.7
2018-08-25T04:14:38.192Z,34.2
2018-08-25T04:15:39.486Z,34.7
2018-08-25T04:16:40.921Z,34.2
2018-08-25T04:17:42.556Z,34.2
2018-08-25T04:18:44.153Z,34.7
2018-08-25T04:19:45.749Z,34.7
2018-08-25T04:20:47.217Z,34.7
2018-08-25T04:21:48.821Z,34.2
2018-08-25T04:22:50.311Z,34.2
2018-08-25T04:23:51.936Z,34.2
2018-08-25T04:24:53.554Z,34.2
2018-08-25T04:25:54.834Z,33.7
2018-08-25T04:26:56.301Z,34.7
2018-08-25T04:27:57.740Z,34.2
2018-08-25T04:28:59.181Z,34.7
2018-08-25T04:30:00.653Z,35.2
2018-08-25T04:31:02.117Z,34.7
2018-08-25T04:32:03.763Z,34.2
2018-08-25T04:33:05.223Z,34.7
2018-08-25T04:34:06.841Z,34.7
2018-08-25T04:35:08.489Z,34.7
2018-08-25T04:36:10.135Z,35.2
2018-08-25T04:37:11.749Z,34.7
2018-08-25T04:38:13.368Z,34.2
2018-08-25T04:39:14.866Z,35.2
2018-08-25T04:40:16.294Z,34.7
2018-08-25T04:41:18.524Z,35.2
2018-08-25T04:42:20.349Z,34.7
2018-08-25T04:43:21.882Z,34.7
2018-08-25T04:44:23.496Z,34.7
2018-08-25T04:45:24.949Z,34.7
2018-08-25T04:46:26.604Z,34.7
2018-08-25T04:47:28.210Z,35.2
2018-08-25T04:48:29.667Z,33.7
2018-08-25T04:49:31.110Z,34.7
2018-08-25T04:50:32.709Z,34.7
2018-08-25T04:51:34.306Z,35.2
2018-08-25T04:52:35.942Z,34.7
2018-08-25T04:53:37.453Z,34.2
2018-08-25T04:54:39.103Z,35.2
2018-08-25T04:55:40.902Z,35.2
2018-08-25T04:56:42.536Z,34.7
2018-08-25T04:57:43.975Z,35.2
2018-08-25T04:58:45.600Z,34.2
2018-08-25T04:59:47.216Z,34.7
2018-08-25T05:00:48.672Z,35.2
2018-08-25T05:01:50.612Z,34.7
2018-08-25T05:02:52.430Z,35.2
2018-08-25T05:03:54.073Z,34.2
2018-08-25T05:04:55.723Z,34.2
2018-08-25T05:05:57.338Z,34.2
2018-08-25T05:06:58.968Z,34.7
2018-08-25T05:08:00.249Z,33.7
2018-08-25T05:09:01.920Z,34.2
2018-08-25T05:10:03.155Z,34.7
2018-08-25T05:11:04.753Z,34.2
2018-08-25T05:12:06.223Z,34.7
2018-08-25T05:13:07.678Z,34.7
2018-08-25T05:14:09.318Z,35.2
2018-08-25T05:15:10.652Z,34.2
2018-08-25T05:16:12.249Z,34.7
2018-08-25T05:17:13.694Z,34.7
2018-08-25T05:18:15.133Z,34.2
2018-08-25T05:19:16.582Z,34.7
2018-08-25T05:20:18.223Z,35.2
2018-08-25T05:21:19.854Z,34.2
2018-08-25T05:22:21.452Z,34.2
2018-08-25T05:23:23.086Z,33.7
2018-08-25T05:24:24.557Z,34.2
2018-08-25T05:25:25.986Z,34.2
2018-08-25T05:26:27.608Z,33.7
2018-08-25T05:27:29.073Z,34.2
2018-08-25T05:28:30.686Z,33.2
2018-08-25T05:29:32.318Z,34.7
2018-08-25T05:30:34.018Z,33.7
2018-08-25T05:31:35.657Z,33.7
2018-08-25T05:32:37.115Z,33.2
2018-08-25T05:33:38.748Z,33.7
2018-08-25T05:34:40.379Z,33.7
2018-08-25T05:35:41.826Z,33.7
2018-08-25T05:36:43.292Z,33.2
2018-08-25T05:37:44.898Z,33.7
2018-08-25T05:38:46.498Z,34.2
2018-08-25T05:39:48.092Z,34.2
2018-08-25T05:40:49.534Z,34.2
2018-08-25T05:41:50.821Z,34.2
2018-08-25T05:42:52.283Z,34.7
2018-08-25T05:43:53.396Z,34.2
2018-08-25T05:44:55.051Z,34.7
2018-08-25T05:45:56.350Z,34.2
2018-08-25T05:46:57.842Z,34.2
2018-08-25T05:47:59.509Z,34.7
2018-08-25T05:49:00.968Z,34.2
2018-08-25T05:50:02.404Z,34.7
2018-08-25T05:51:04.032Z,34.2
2018-08-25T05:52:05.656Z,35.2
2018-08-25T05:53:07.134Z,35.2
2018-08-25T05:54:08.575Z,35.2
2018-08-25T05:55:10.161Z,34.7
2018-08-25T05:56:11.607Z,34.2
2018-08-25T05:57:13.065Z,34.7
2018-08-25T05:58:14.706Z,34.7
2018-08-25T05:59:15.993Z,34.7
2018-08-25T06:00:17.617Z,34.7
2018-08-25T06:01:19.232Z,34.7
2018-08-25T06:02:20.859Z,35.2
2018-08-25T06:03:22.551Z,34.2
2018-08-25T06:04:24.190Z,34.7
2018-08-25T06:05:25.654Z,35.2
2018-08-25T06:06:27.437Z,35.2
2018-08-25T06:07:28.742Z,34.7
2018-08-25T06:08:30.351Z,34.7
2018-08-25T06:09:31.774Z,35.2
2018-08-25T06:10:33.227Z,35.2
2018-08-25T06:11:34.673Z,35.2
2018-08-25T06:12:36.118Z,35.2
2018-08-25T06:13:38.401Z,34.7
2018-08-25T06:14:40.144Z,34.7
2018-08-25T06:15:41.751Z,34.7
2018-08-25T06:16:43.359Z,35.7
2018-08-25T06:17:45.269Z,34.7
2018-08-25T06:18:47.182Z,35.2
2018-08-25T06:19:48.634Z,34.7
2018-08-25T06:20:50.271Z,35.7
2018-08-25T06:21:51.890Z,34.7
2018-08-25T06:22:53.506Z,35.2
2018-08-25T06:23:55.115Z,35.2
2018-08-25T06:24:56.238Z,35.2
2018-08-25T06:25:57.876Z,35.2
2018-08-25T06:26:59.516Z,35.2
2018-08-25T06:28:01.132Z,35.2
2018-08-25T06:29:02.755Z,35.2
2018-08-25T06:30:04.496Z,35.2
2018-08-25T06:31:05.973Z,35.2
2018-08-25T06:32:07.415Z,36.2
2018-08-25T06:33:09.018Z,34.7
2018-08-25T06:34:10.468Z,35.2
2018-08-25T06:35:11.911Z,35.2
2018-08-25T06:36:13.417Z,34.7
2018-08-25T06:37:15.056Z,35.2
2018-08-25T06:38:16.493Z,35.2
2018-08-25T06:39:18.096Z,35.7
2018-08-25T06:40:19.721Z,35.2
2018-08-25T06:41:21.180Z,34.7
2018-08-25T06:42:22.796Z,34.7
2018-08-25T06:43:24.615Z,35.2
2018-08-25T06:44:26.320Z,34.7
2018-08-25T06:45:27.610Z,34.7
2018-08-25T06:46:28.907Z,34.7
2018-08-25T06:47:30.371Z,35.7
2018-08-25T06:48:31.879Z,34.7
2018-08-25T06:49:33.492Z,34.7
2018-08-25T06:50:35.103Z,34.7
2018-08-25T06:51:36.723Z,35.2
2018-08-25T06:52:38.170Z,35.2
2018-08-25T06:53:39.806Z,35.2
2018-08-25T06:54:41.429Z,34.7
2018-08-25T06:55:43.069Z,34.2
2018-08-25T06:56:44.734Z,35.2
2018-08-25T06:57:46.175Z,34.7
2018-08-25T06:58:47.605Z,34.7
2018-08-25T06:59:49.223Z,34.2
2018-08-25T07:00:50.938Z,34.2
2018-08-25T07:01:52.590Z,34.7
2018-08-25T07:02:54.035Z,35.2
2018-08-25T07:03:55.491Z,35.2
2018-08-25T07:04:56.947Z,34.2
2018-08-25T07:05:58.870Z,34.7
2018-08-25T07:07:00.648Z,34.7
2018-08-25T07:08:02.125Z,34.7
2018-08-25T07:09:03.567Z,34.7
2018-08-25T07:10:05.213Z,34.7
2018-08-25T07:11:06.866Z,34.2
2018-08-25T07:12:08.506Z,34.2
2018-08-25T07:13:10.162Z,34.2
2018-08-25T07:14:11.785Z,34.2
2018-08-25T07:15:13.289Z,34.7
2018-08-25T07:16:14.894Z,34.2
2018-08-25T07:17:16.516Z,33.7
2018-08-25T07:18:18.138Z,34.7
2018-08-25T07:19:19.612Z,33.7
2018-08-25T07:20:21.238Z,33.7
2018-08-25T07:21:22.687Z,40.6
2018-08-25T07:22:24.125Z,45.5
2018-08-25T07:23:25.782Z,46.4
2018-08-25T07:24:27.416Z,47.9
2018-08-25T07:25:28.717Z,48.4
2018-08-25T07:26:30.319Z,48.4
2018-08-25T07:27:31.941Z,47.9
2018-08-25T07:28:33.405Z,47.9
2018-08-25T07:29:35.041Z,46.9
2018-08-25T07:30:36.480Z,47.4
2018-08-25T07:31:37.942Z,46.9
2018-08-25T07:32:39.412Z,46.4
2018-08-25T07:33:40.865Z,46.4
2018-08-25T07:34:42.475Z,45.5
2018-08-25T07:35:43.934Z,46.9
2018-08-25T07:36:45.546Z,45.5
2018-08-25T07:37:47.182Z,45.5
2018-08-25T07:38:48.788Z,45.9
2018-08-25T07:39:50.092Z,46.4
2018-08-25T07:40:51.713Z,45
2018-08-25T07:41:53.325Z,45
2018-08-25T07:42:55.091Z,44.5
2018-08-25T07:43:56.568Z,44.5
2018-08-25T07:44:58.013Z,44
2018-08-25T07:45:59.480Z,44
2018-08-25T07:47:00.789Z,44
2018-08-25T07:48:02.109Z,44
2018-08-25T07:49:03.736Z,44
2018-08-25T07:50:05.457Z,43.5
2018-08-25T07:51:07.069Z,43
2018-08-25T07:52:08.722Z,43.5
2018-08-25T07:53:10.367Z,43.5
2018-08-25T07:54:12.003Z,43
2018-08-25T07:55:13.641Z,43
2018-08-25T07:56:15.112Z,42.5
2018-08-25T07:57:16.709Z,42.5
2018-08-25T07:58:18.419Z,42
2018-08-25T07:59:20.474Z,42
2018-08-25T08:00:22.056Z,42
2018-08-25T08:01:23.513Z,42
2018-08-25T08:02:24.977Z,41.1
2018-08-25T08:03:26.608Z,41.5
2018-08-25T08:04:28.252Z,41.1
2018-08-25T08:05:30.013Z,41.1
2018-08-25T08:06:31.755Z,40.6
2018-08-25T08:07:33.211Z,41.5
2018-08-25T08:08:34.845Z,42
2018-08-25T08:09:36.466Z,41.1
2018-08-25T08:10:38.115Z,40.6
2018-08-25T08:11:39.669Z,41.5
2018-08-25T08:12:41.165Z,41.1
2018-08-25T08:13:42.625Z,40.6
2018-08-25T08:14:44.258Z,40.6
2018-08-25T08:15:45.933Z,41.1
2018-08-25T08:16:47.552Z,40.6
2018-08-25T08:17:49.169Z,40.6
2018-08-25T08:18:50.625Z,40.1
2018-08-25T08:19:52.064Z,40.1
2018-08-25T08:20:53.352Z,39.6
2018-08-25T08:21:55.000Z,39.6
2018-08-25T08:22:56.284Z,39.6
2018-08-25T08:23:57.907Z,38.6
2018-08-25T08:24:59.514Z,39.6
2018-08-25T08:26:01.127Z,39.6
2018-08-25T08:27:02.596Z,39.6
2018-08-25T08:28:04.218Z,39.6
2018-08-25T08:29:05.841Z,39.1
2018-08-25T08:30:07.444Z,39.1
2018-08-25T08:31:08.900Z,39.6
2018-08-25T08:32:10.356Z,39.6
2018-08-25T08:33:11.652Z,39.6
2018-08-25T08:34:13.326Z,39.1
2018-08-25T08:35:14.952Z,38.6
2018-08-25T08:36:16.236Z,39.1
2018-08-25T08:37:17.692Z,38.6
2018-08-25T08:38:19.157Z,39.1
2018-08-25T08:39:20.929Z,38.1
2018-08-25T08:40:22.705Z,38.6
2018-08-25T08:41:24.166Z,39.1
2018-08-25T08:42:26.464Z,37.6
2018-08-25T08:43:28.358Z,38.1
2018-08-25T08:44:29.833Z,38.6
2018-08-25T08:45:31.781Z,38.6
2018-08-25T08:46:33.528Z,38.6
2018-08-25T08:47:35.517Z,38.6
2018-08-25T08:48:37.414Z,38.1
2018-08-25T08:49:48.208Z,38.6
2018-08-25T08:50:49.522Z,38.6
2018-08-25T08:51:51.154Z,37.6
2018-08-25T08:52:52.607Z,38.1
2018-08-25T08:53:54.271Z,37.6
2018-08-25T08:54:55.905Z,37.6
2018-08-25T08:55:57.530Z,37.6
2018-08-25T08:56:59.144Z,38.1
2018-08-25T08:58:00.801Z,37.1
2018-08-25T08:59:02.436Z,37.6
2018-08-25T09:00:04.068Z,37.1
2018-08-25T09:01:05.684Z,37.6
2018-08-25T09:02:07.010Z,37.1
2018-08-25T09:03:08.627Z,37.1
2018-08-25T09:04:10.241Z,36.2
2018-08-25T09:05:11.529Z,36.2
2018-08-25T09:06:13.024Z,36.2
2018-08-25T09:07:14.637Z,36.7
2018-08-25T09:08:16.263Z,36.7
2018-08-25T09:09:17.708Z,36.2
2018-08-25T09:10:19.150Z,36.7
2018-08-25T09:11:20.983Z,35.7
2018-08-25T09:12:22.515Z,36.7
2018-08-25T09:13:24.158Z,36.7
2018-08-25T09:14:25.760Z,35.2
2018-08-25T09:15:27.236Z,36.2
2018-08-25T09:16:28.508Z,35.7
2018-08-25T09:17:29.946Z,36.2
2018-08-25T09:18:31.593Z,36.2
2018-08-25T09:19:34.018Z,36.7
2018-08-25T09:20:35.810Z,36.2
2018-08-25T09:21:37.097Z,35.7
2018-08-25T09:22:38.702Z,36.2
2018-08-25T09:23:40.297Z,36.7
2018-08-25T09:24:41.721Z,36.2
2018-08-25T09:25:43.348Z,36.2
2018-08-25T09:26:45.103Z,36.2
2018-08-25T09:27:46.751Z,36.2
2018-08-25T09:28:48.388Z,36.2
2018-08-25T09:29:49.995Z,36.2
2018-08-25T09:30:51.608Z,37.1
2018-08-25T09:31:53.224Z,36.7
2018-08-25T09:32:54.849Z,36.2
2018-08-25T09:33:56.454Z,36.7
2018-08-25T09:34:57.917Z,36.2
2018-08-25T09:36:00.975Z,36.7
2018-08-25T09:37:03.221Z,36.7
2018-08-25T09:38:04.751Z,35.7
2018-08-25T09:39:06.057Z,36.7
2018-08-25T09:40:07.674Z,37.1
2018-08-25T09:41:08.968Z,36.2
2018-08-25T09:42:10.155Z,36.7
2018-08-25T09:43:11.877Z,36.7
2018-08-25T09:44:13.591Z,36.2
2018-08-25T09:45:15.228Z,36.7
2018-08-25T09:46:16.866Z,36.7
2018-08-25T09:47:18.500Z,36.2
2018-08-25T09:48:20.117Z,36.2
2018-08-25T09:49:21.595Z,36.2
2018-08-25T09:50:22.904Z,36.7
2018-08-25T09:51:24.538Z,36.7
2018-08-25T09:52:26.152Z,36.2
2018-08-25T09:53:28.021Z,36.7
2018-08-25T09:54:29.437Z,37.1
2018-08-25T09:55:31.110Z,36.7
2018-08-25T09:56:32.742Z,36.2
2018-08-25T09:57:34.044Z,36.7
2018-08-25T09:58:35.518Z,36.7
2018-08-25T09:59:36.806Z,35.7
2018-08-25T10:00:38.271Z,37.1
2018-08-25T10:01:39.904Z,36.2
2018-08-25T10:02:41.521Z,36.2
2018-08-25T10:03:43.183Z,36.7
2018-08-25T10:04:44.485Z,36.7
2018-08-25T10:05:45.954Z,36.2
2018-08-25T10:06:47.598Z,36.2
2018-08-25T10:07:49.206Z,37.1
2018-08-25T10:08:50.687Z,36.7
2018-08-25T10:09:52.304Z,36.2
2018-08-25T10:10:54.298Z,36.2
2018-08-25T10:11:56.018Z,36.7
2018-08-25T10:12:57.667Z,36.2
2018-08-25T10:13:59.288Z,36.7
2018-08-25T10:15:00.764Z,36.2
2018-08-25T10:16:02.299Z,36.2
2018-08-25T10:17:03.967Z,36.2
2018-08-25T10:18:05.599Z,36.2
2018-08-25T10:19:07.282Z,36.7
2018-08-25T10:20:08.904Z,36.2
2018-08-25T10:21:10.511Z,36.7
2018-08-25T10:22:12.151Z,36.2
2018-08-25T10:23:13.778Z,36.7
2018-08-25T10:24:15.481Z,36.2
2018-08-25T10:25:16.938Z,36.7
2018-08-25T10:26:18.394Z,36.2
2018-08-25T10:27:20.037Z,36.7
2018-08-25T10:28:21.704Z,35.7
2018-08-25T10:29:23.185Z,35.7
2018-08-25T10:30:24.642Z,36.7
2018-08-25T10:31:26.093Z,35.7
2018-08-25T10:32:27.717Z,36.2
2018-08-25T10:33:29.371Z,36.2
2018-08-25T10:34:30.987Z,36.2
2018-08-25T10:35:32.820Z,35.2
2018-08-25T10:36:34.524Z,36.7
2018-08-25T10:37:36.187Z,36.7
2018-08-25T10:38:37.803Z,36.2
2018-08-25T10:39:39.461Z,35.2
2018-08-25T10:40:40.956Z,36.7
2018-08-25T10:41:43.002Z,36.2
2018-08-25T10:42:44.689Z,35.2
2018-08-25T10:43:46.375Z,35.7
2018-08-25T10:44:47.997Z,36.2
2018-08-25T10:45:49.630Z,35.7
2018-08-25T10:46:51.086Z,36.2
2018-08-25T10:47:52.683Z,35.7
2018-08-25T10:48:54.159Z,35.2
2018-08-25T10:49:55.602Z,36.2
2018-08-25T10:50:57.242Z,35.7
2018-08-25T10:51:58.535Z,35.7
2018-08-25T10:52:59.758Z,35.7
2018-08-25T10:54:02.176Z,35.2
2018-08-25T10:55:04.069Z,35.2
2018-08-25T10:56:05.516Z,35.2
2018-08-25T10:57:07.171Z,35.2
2018-08-25T10:58:08.732Z,35.2
2018-08-25T10:59:10.346Z,34.7
2018-08-25T11:00:12.255Z,34.7
2018-08-25T11:01:14.377Z,34.7
2018-08-25T11:02:16.113Z,34.2
2018-08-25T11:03:17.574Z,34.2
2018-08-25T11:04:18.866Z,34.2
2018-08-25T11:05:20.476Z,34.7
2018-08-25T11:06:21.781Z,34.7
2018-08-25T11:07:23.176Z,34.2
2018-08-25T11:08:24.548Z,34.7
2018-08-25T11:09:25.876Z,34.7
2018-08-25T11:10:27.502Z,34.7
2018-08-25T11:11:28.950Z,34.2
2018-08-25T11:12:30.555Z,34.2
2018-08-25T11:13:32.015Z,33.7
2018-08-25T11:14:33.659Z,34.2
2018-08-25T11:15:35.281Z,33.7
2018-08-25T11:16:37.064Z,33.7
2018-08-25T11:17:38.779Z,34.7
2018-08-25T11:18:40.384Z,33.7
2018-08-25T11:19:41.992Z,34.2
2018-08-25T11:20:43.625Z,35.2
2018-08-25T11:21:45.079Z,34.2
2018-08-25T11:22:46.689Z,34.7
2018-08-25T11:23:48.909Z,35.2
2018-08-25T11:24:50.814Z,34.2
2018-08-25T11:25:52.453Z,35.2
2018-08-25T11:26:54.089Z,35.2
2018-08-25T11:27:55.555Z,35.2
2018-08-25T11:28:57.070Z,35.2
2018-08-25T11:29:58.714Z,35.2
2018-08-25T11:31:00.340Z,34.7
2018-08-25T11:32:01.973Z,35.2
2018-08-25T11:33:03.407Z,35.2
2018-08-25T11:34:05.031Z,35.2
2018-08-25T11:35:06.839Z,35.7
2018-08-25T11:36:08.315Z,35.2
2018-08-25T11:37:10.088Z,34.7
2018-08-25T11:38:12.486Z,36.2
2018-08-25T11:39:14.056Z,35.2
2018-08-25T11:40:15.511Z,35.7
2018-08-25T11:41:17.129Z,35.7
2018-08-25T11:42:18.749Z,35.2
2018-08-25T11:43:20.393Z,35.2
2018-08-25T11:44:22.052Z,35.2
2018-08-25T11:45:23.518Z,35.7
2018-08-25T11:46:25.134Z,36.2
2018-08-25T11:47:26.442Z,35.2
2018-08-25T11:48:27.885Z,35.7
2018-08-25T11:49:29.348Z,35.7
2018-08-25T11:50:30.629Z,35.7
2018-08-25T11:51:31.908Z,35.2
2018-08-25T11:52:33.529Z,36.2
2018-08-25T11:53:34.995Z,35.2
2018-08-25T11:54:36.472Z,35.2
2018-08-25T11:55:37.904Z,35.2
2018-08-25T11:56:39.387Z,35.2
2018-08-25T11:57:40.840Z,35.2
2018-08-25T11:58:42.469Z,35.2
2018-08-25T11:59:43.898Z,35.2
2018-08-25T12:00:45.485Z,35.7
2018-08-25T12:01:47.118Z,36.2
2018-08-25T12:02:48.735Z,34.7
2018-08-25T12:03:50.372Z,35.7
2018-08-25T12:04:52.009Z,36.2
2018-08-25T12:05:53.465Z,35.2
2018-08-25T12:06:54.937Z,35.2
2018-08-25T12:07:56.616Z,34.7
2018-08-25T12:08:58.089Z,35.2
2018-08-25T12:09:59.734Z,35.2
2018-08-25T12:11:01.228Z,35.7
2018-08-25T12:12:02.849Z,34.7
2018-08-25T12:13:04.486Z,35.7
2018-08-25T12:14:06.100Z,35.2
2018-08-25T12:15:07.762Z,35.2
2018-08-25T12:16:09.551Z,36.2
2018-08-25T12:17:11.064Z,35.2
2018-08-25T12:18:12.682Z,35.2
2018-08-25T12:19:14.295Z,35.7
2018-08-25T12:20:15.638Z,35.2
2018-08-25T12:21:17.260Z,35.2
2018-08-25T12:22:18.712Z,35.7
2018-08-25T12:23:20.346Z,34.7
2018-08-25T12:24:21.816Z,35.2
2018-08-25T12:25:23.434Z,34.2
2018-08-25T12:26:24.977Z,35.2
2018-08-25T12:27:26.664Z,34.7
2018-08-25T12:28:27.957Z,35.7
2018-08-25T12:29:29.406Z,35.7
2018-08-25T12:30:31.267Z,34.7
2018-08-25T12:31:32.998Z,35.2
2018-08-25T12:32:34.630Z,35.2
2018-08-25T12:33:37.000Z,35.2
2018-08-25T12:34:38.525Z,34.2
2018-08-25T12:35:40.168Z,34.7
2018-08-25T12:36:41.623Z,35.2
2018-08-25T12:37:43.254Z,34.7
2018-08-25T12:38:44.745Z,34.7
2018-08-25T12:39:46.408Z,35.2
2018-08-25T12:40:48.044Z,34.7
2018-08-25T12:41:49.510Z,34.7
2018-08-25T12:42:51.130Z,34.7
2018-08-25T12:43:52.766Z,34.7
2018-08-25T12:44:54.621Z,34.7
2018-08-25T12:45:56.331Z,35.7
2018-08-25T12:46:57.879Z,34.7
2018-08-25T12:47:59.540Z,34.2
2018-08-25T12:49:01.180Z,34.7
2018-08-25T12:50:02.637Z,34.2
2018-08-25T12:51:04.481Z,34.7
2018-08-25T12:52:06.157Z,34.2
2018-08-25T12:53:07.794Z,34.7
2018-08-25T12:54:09.415Z,34.2
2018-08-25T12:55:11.179Z,34.2
2018-08-25T12:56:12.833Z,34.2
2018-08-25T12:57:14.465Z,33.7
2018-08-25T12:58:16.122Z,34.7
2018-08-25T12:59:18.130Z,33.7
2018-08-25T13:00:19.965Z,33.7
2018-08-25T13:01:21.584Z,34.2
2018-08-25T13:02:23.270Z,33.7
2018-08-25T13:03:25.130Z,34.2
2018-08-25T13:04:26.602Z,33.7
2018-08-25T13:05:28.217Z,33.7
2018-08-25T13:06:29.690Z,34.2
2018-08-25T13:07:31.897Z,34.2
2018-08-25T13:08:33.755Z,33.7
2018-08-25T13:09:35.402Z,34.2
2018-08-25T13:10:36.682Z,33.2
2018-08-25T13:11:38.301Z,33.2
2018-08-25T13:12:39.971Z,33.7
2018-08-25T13:13:41.610Z,33.2
2018-08-25T13:14:43.077Z,33.7
2018-08-25T13:15:44.466Z,33.2
2018-08-25T13:16:46.125Z,33.7
2018-08-25T13:17:47.757Z,34.2
2018-08-25T13:18:49.671Z,34.2
2018-08-25T13:19:51.448Z,34.7
2018-08-25T13:20:53.104Z,34.7
2018-08-25T13:21:55.015Z,33.7
2018-08-25T13:22:56.813Z,34.2
2018-08-25T13:23:58.306Z,34.7
2018-08-25T13:25:00.410Z,34.2
2018-08-25T13:26:02.080Z,34.2
2018-08-25T13:27:03.712Z,34.2
2018-08-25T13:28:05.330Z,35.2
2018-08-25T13:29:06.957Z,34.7
2018-08-25T13:30:08.592Z,34.7
2018-08-25T13:31:10.851Z,34.7
2018-08-25T13:32:12.603Z,35.2
2018-08-25T13:33:14.213Z,35.2
2018-08-25T13:34:15.822Z,35.2
2018-08-25T13:35:17.446Z,35.2
2018-08-25T13:36:18.922Z,35.2
2018-08-25T13:37:20.528Z,34.7
2018-08-25T13:38:22.014Z,35.7
2018-08-25T13:39:23.614Z,35.2
2018-08-25T13:40:25.263Z,35.2